sensor_id;sensor_type;location;lat;lon;timestamp;temperature;humidity
23452;DHT22;11898;51.130;6.780;2023-11-19T09:30:31;21.90;99.90
23452;DHT22;11898;51.130;6.780;2023-11-19T09:33:02;22.30;99.90
23452;DHT22;11898;51.130;6.780;2023-11-19T09:35:30;22.60;99.90
23452;DHT22;11898;51.130;6.780;2023-11-19T09:37:59;22.90;99.90
23452;DHT22;11898;51.130;6.780;2023-11-19T09:40:29;22.70;99.90
23452;DHT22;11898;51.130;6.780;2023-11-19T09:43:00;22.20;99.90
23452;DHT22;11898;51.130;6.780;2023-11-19T09:45:28;21.70;99.90
23452;DHT22;11898;51.130;6.780;2023-11-19T09:47:59;21.20;99.90
23452;DHT22;11898;51.130;6.780;2023-11-19T09:50:28;21.00;99.90
23452;DHT22;11898;51.130;6.780;2023-11-19T09:52:58;20.70;99.90
23452;DHT22;11898;51.130;6.780;2023-11-19T09:55:28;20.50;99.90
23452;DHT22;11898;51.130;6.780;2023-11-19T09:57:57;20.30;99.90
23452;DHT22;11898;51.130;6.780;2023-11-19T10:00:28;20.00;99.90
23452;DHT22;11898;51.130;6.780;2023-11-19T10:03:00;19.90;99.90
23452;DHT22;11898;51.130;6.780;2023-11-19T10:05:29;20.00;99.90
23452;DHT22;11898;51.130;6.780;2023-11-19T10:07:58;20.10;99.90
23452;DHT22;11898;51.130;6.780;2023-11-19T10:10:30;20.10;99.90
23452;DHT22;11898;51.130;6.780;2023-11-19T10:13:01;20.10;99.90
23452;DHT22;11898;51.130;6.780;2023-11-19T10:15:33;20.30;99.90
23452;DHT22;11898;51.130;6.780;2023-11-19T10:18:02;20.80;99.90
23452;DHT22;11898;51.130;6.780;2023-11-19T10:20:40;21.30;99.90
23452;DHT22;11898;51.130;6.780;2023-11-19T10:23:09;21.40;99.90
23452;DHT22;11898;51.130;6.780;2023-11-19T10:25:39;21.30;99.90
23452;DHT22;11898;51.130;6.780;2023-11-19T10:28:07;21.00;99.90
23452;DHT22;11898;51.130;6.780;2023-11-19T10:30:36;20.80;99.90
23452;DHT22;11898;51.130;6.780;2023-11-19T10:33:08;20.60;99.90
23452;DHT22;11898;51.130;6.780;2023-11-19T10:35:51;20.40;99.90
23452;DHT22;11898;51.130;6.780;2023-11-19T10:38:26;20.20;99.90
23452;DHT22;11898;51.130;6.780;2023-11-19T10:40:56;19.80;99.90
23452;DHT22;11898;51.130;6.780;2023-11-19T10:43:25;19.50;99.90
23452;DHT22;11898;51.130;6.780;2023-11-19T10:45:53;19.20;99.90
23452;DHT22;11898;51.130;6.780;2023-11-19T10:48:22;18.90;99.90
23452;DHT22;11898;51.130;6.780;2023-11-19T10:50:54;18.70;99.90
23452;DHT22;11898;51.130;6.780;2023-11-19T10:53:27;18.50;99.90
23452;DHT22;11898;51.130;6.780;2023-11-19T10:56:00;18.40;99.90
23452;DHT22;11898;51.130;6.780;2023-11-19T10:58:29;18.20;99.90
23452;DHT22;11898;51.130;6.780;2023-11-19T11:01:01;18.20;99.90
23452;DHT22;11898;51.130;6.780;2023-11-19T11:03:40;18.10;99.90
23452;DHT22;11898;51.130;6.780;2023-11-19T11:06:10;18.00;99.90
23452;DHT22;11898;51.130;6.780;2023-11-19T11:08:41;17.80;99.90
23452;DHT22;11898;51.130;6.780;2023-11-19T11:11:13;17.60;99.90
23452;DHT22;11898;51.130;6.780;2023-11-19T11:13:43;17.60;99.90
23452;DHT22;11898;51.130;6.780;2023-11-19T11:16:13;17.50;99.90
23452;DHT22;11898;51.130;6.780;2023-11-19T11:18:42;17.30;99.90
23452;DHT22;11898;51.130;6.780;2023-11-19T11:21:14;17.30;99.90
23452;DHT22;11898;51.130;6.780;2023-11-19T11:30:03;18.60;99.90
23452;DHT22;11898;51.130;6.780;2023-11-19T11:35:55;20.40;99.90
23452;DHT22;11898;51.130;6.780;2023-11-19T11:38:23;20.80;99.90
23452;DHT22;11898;51.130;6.780;2023-11-19T11:41:15;20.90;99.90
23452;DHT22;11898;51.130;6.780;2023-11-19T11:43:47;20.90;99.90
23452;DHT22;11898;51.130;6.780;2023-11-19T11:49:07;21.20;99.90
23452;DHT22;11898;51.130;6.780;2023-11-19T11:57:13;20.80;99.90
23452;DHT22;11898;51.130;6.780;2023-11-19T11:59:46;21.10;99.90
23452;DHT22;11898;51.130;6.780;2023-11-19T12:02:17;21.20;99.90
23452;DHT22;11898;51.130;6.780;2023-11-19T12:04:53;21.10;99.90
23452;DHT22;11898;51.130;6.780;2023-11-19T12:07:23;21.00;99.90
23452;DHT22;11898;51.130;6.780;2023-11-19T12:10:09;21.10;99.90
23452;DHT22;11898;51.130;6.780;2023-11-19T12:12:40;21.10;99.90
23452;DHT22;11898;51.130;6.780;2023-11-19T12:15:09;21.20;99.90
23452;DHT22;11898;51.130;6.780;2023-11-19T12:17:49;21.30;99.90
23452;DHT22;11898;51.130;6.780;2023-11-19T12:20:21;21.30;99.90
23452;DHT22;11898;51.130;6.780;2023-11-19T12:22:52;21.10;99.90
23452;DHT22;11898;51.130;6.780;2023-11-19T12:25:22;20.80;99.90
23452;DHT22;11898;51.130;6.780;2023-11-19T12:27:52;20.60;99.90
23452;DHT22;11898;51.130;6.780;2023-11-19T12:30:24;20.50;99.90
23452;DHT22;11898;51.130;6.780;2023-11-19T12:32:54;20.20;99.90
23452;DHT22;11898;51.130;6.780;2023-11-19T12:35:23;19.80;99.90
23452;DHT22;11898;51.130;6.780;2023-11-19T12:37:52;19.50;99.90
23452;DHT22;11898;51.130;6.780;2023-11-19T12:40:24;19.20;99.90
23452;DHT22;11898;51.130;6.780;2023-11-19T12:42:54;18.90;99.90
23452;DHT22;11898;51.130;6.780;2023-11-19T12:45:23;18.60;99.90
23452;DHT22;11898;51.130;6.780;2023-11-19T12:48:06;18.40;99.90
23452;DHT22;11898;51.130;6.780;2023-11-19T12:50:55;18.10;99.90
23452;DHT22;11898;51.130;6.780;2023-11-19T12:53:26;17.70;99.90
23452;DHT22;11898;51.130;6.780;2023-11-19T12:55:56;17.60;99.90
23452;DHT22;11898;51.130;6.780;2023-11-19T12:58:33;17.50;99.90
23452;DHT22;11898;51.130;6.780;2023-11-19T13:01:05;17.70;99.90
23452;DHT22;11898;51.130;6.780;2023-11-19T13:03:36;17.80;99.90
23452;DHT22;11898;51.130;6.780;2023-11-19T13:06:09;17.90;99.90
23452;DHT22;11898;51.130;6.780;2023-11-19T13:08:48;17.90;99.90
23452;DHT22;11898;51.130;6.780;2023-11-19T13:11:32;18.00;99.90
23452;DHT22;11898;51.130;6.780;2023-11-19T13:14:03;18.20;99.90
23452;DHT22;11898;51.130;6.780;2023-11-19T13:16:33;18.40;99.90
23452;DHT22;11898;51.130;6.780;2023-11-19T13:19:02;18.50;99.90
23452;DHT22;11898;51.130;6.780;2023-11-19T13:21:31;18.50;99.90
23452;DHT22;11898;51.130;6.780;2023-11-19T13:24:00;18.50;99.90
23452;DHT22;11898;51.130;6.780;2023-11-19T13:26:30;18.50;99.90
23452;DHT22;11898;51.130;6.780;2023-11-19T13:28:58;18.60;99.90
23452;DHT22;11898;51.130;6.780;2023-11-19T13:31:30;18.60;99.90
23452;DHT22;11898;51.130;6.780;2023-11-19T13:33:59;18.60;99.90
23452;DHT22;11898;51.130;6.780;2023-11-19T13:36:28;18.60;99.90
23452;DHT22;11898;51.130;6.780;2023-11-19T13:38:58;18.50;99.90
23452;DHT22;11898;51.130;6.780;2023-11-19T13:41:27;18.50;99.90
23452;DHT22;11898;51.130;6.780;2023-11-19T13:43:56;18.40;99.90
23452;DHT22;11898;51.130;6.780;2023-11-19T13:46:26;18.40;99.90
23452;DHT22;11898;51.130;6.780;2023-11-19T13:48:56;18.30;99.90
23452;DHT22;11898;51.130;6.780;2023-11-19T13:51:24;18.20;99.90
23452;DHT22;11898;51.130;6.780;2023-11-19T13:53:53;18.00;99.90
23452;DHT22;11898;51.130;6.780;2023-11-19T13:56:22;17.80;99.90
23452;DHT22;11898;51.130;6.780;2023-11-19T13:58:51;17.70;99.90
23452;DHT22;11898;51.130;6.780;2023-11-19T14:01:21;17.60;99.90
23452;DHT22;11898;51.130;6.780;2023-11-19T14:03:53;17.50;99.90
23452;DHT22;11898;51.130;6.780;2023-11-19T14:06:21;17.30;99.90
23452;DHT22;11898;51.130;6.780;2023-11-19T14:08:50;17.20;99.90
23452;DHT22;11898;51.130;6.780;2023-11-19T14:11:18;17.10;99.90
23452;DHT22;11898;51.130;6.780;2023-11-19T14:13:47;17.00;99.90
23452;DHT22;11898;51.130;6.780;2023-11-19T14:16:17;16.90;99.90
23452;DHT22;11898;51.130;6.780;2023-11-19T14:18:46;16.80;99.90
23452;DHT22;11898;51.130;6.780;2023-11-19T14:21:17;16.70;99.90
23452;DHT22;11898;51.130;6.780;2023-11-19T14:23:45;16.70;99.90
23452;DHT22;11898;51.130;6.780;2023-11-19T14:26:14;16.60;99.90
23452;DHT22;11898;51.130;6.780;2023-11-19T14:28:44;16.50;99.90
23452;DHT22;11898;51.130;6.780;2023-11-19T14:31:14;16.40;99.90
23452;DHT22;11898;51.130;6.780;2023-11-19T14:33:43;16.30;99.90
23452;DHT22;11898;51.130;6.780;2023-11-19T14:36:13;16.20;99.90
23452;DHT22;11898;51.130;6.780;2023-11-19T14:38:41;16.20;99.90
23452;DHT22;11898;51.130;6.780;2023-11-19T14:41:10;16.10;99.90
23452;DHT22;11898;51.130;6.780;2023-11-19T14:43:39;16.10;99.90
23452;DHT22;11898;51.130;6.780;2023-11-19T14:46:09;16.10;99.90
23452;DHT22;11898;51.130;6.780;2023-11-19T14:48:37;16.20;99.90
23452;DHT22;11898;51.130;6.780;2023-11-19T14:51:06;16.20;99.90
23452;DHT22;11898;51.130;6.780;2023-11-19T14:53:38;16.20;99.90
23452;DHT22;11898;51.130;6.780;2023-11-19T14:58:58;16.10;99.90
23452;DHT22;11898;51.130;6.780;2023-11-19T15:03:58;16.10;99.90
23452;DHT22;11898;51.130;6.780;2023-11-19T15:06:28;16.00;99.90
23452;DHT22;11898;51.130;6.780;2023-11-19T15:08:58;16.00;99.90
23452;DHT22;11898;51.130;6.780;2023-11-19T15:11:27;15.90;99.90
23452;DHT22;11898;51.130;6.780;2023-11-19T15:13:56;15.80;99.90
23452;DHT22;11898;51.130;6.780;2023-11-19T15:16:25;15.80;99.90
23452;DHT22;11898;51.130;6.780;2023-11-19T15:18:57;15.70;99.90
23452;DHT22;11898;51.130;6.780;2023-11-19T15:21:32;15.60;99.90
23452;DHT22;11898;51.130;6.780;2023-11-19T15:24:01;15.60;99.90
23452;DHT22;11898;51.130;6.780;2023-11-19T15:26:37;15.50;99.90
23452;DHT22;11898;51.130;6.780;2023-11-19T15:29:06;15.50;99.90
23452;DHT22;11898;51.130;6.780;2023-11-19T15:31:35;15.40;99.90
23452;DHT22;11898;51.130;6.780;2023-11-19T15:34:03;15.40;99.90
23452;DHT22;11898;51.130;6.780;2023-11-19T15:36:33;15.30;99.90
23452;DHT22;11898;51.130;6.780;2023-11-19T15:39:03;15.30;99.90
23452;DHT22;11898;51.130;6.780;2023-11-19T15:41:33;15.20;99.90
23452;DHT22;11898;51.130;6.780;2023-11-19T15:44:03;15.20;99.90
23452;DHT22;11898;51.130;6.780;2023-11-19T15:46:32;15.10;99.90
23452;DHT22;11898;51.130;6.780;2023-11-19T15:49:00;15.10;99.90
23452;DHT22;11898;51.130;6.780;2023-11-19T15:51:30;15.10;99.90
23452;DHT22;11898;51.130;6.780;2023-11-19T15:53:59;15.10;99.90
23452;DHT22;11898;51.130;6.780;2023-11-19T15:56:29;15.10;99.90
23452;DHT22;11898;51.130;6.780;2023-11-19T15:58:58;15.10;99.90
23452;DHT22;11898;51.130;6.780;2023-11-19T16:01:27;15.10;99.90
23452;DHT22;11898;51.130;6.780;2023-11-19T16:03:59;15.10;99.90
23452;DHT22;11898;51.130;6.780;2023-11-19T16:06:28;15.10;99.90
23452;DHT22;11898;51.130;6.780;2023-11-19T16:08:57;15.10;99.90
23452;DHT22;11898;51.130;6.780;2023-11-19T16:11:26;15.00;99.90
23452;DHT22;11898;51.130;6.780;2023-11-19T16:13:55;15.00;99.90
23452;DHT22;11898;51.130;6.780;2023-11-19T16:16:26;15.00;99.90
23452;DHT22;11898;51.130;6.780;2023-11-19T16:18:54;15.00;99.90
23452;DHT22;11898;51.130;6.780;2023-11-19T16:21:22;14.90;99.90
23452;DHT22;11898;51.130;6.780;2023-11-19T16:23:52;14.80;99.90
23452;DHT22;11898;51.130;6.780;2023-11-19T16:26:21;14.80;99.90
23452;DHT22;11898;51.130;6.780;2023-11-19T16:28:49;14.70;99.90
23452;DHT22;11898;51.130;6.780;2023-11-19T16:31:21;14.70;99.90
23452;DHT22;11898;51.130;6.780;2023-11-19T16:33:49;14.60;99.90
23452;DHT22;11898;51.130;6.780;2023-11-19T16:36:19;14.60;99.90
23452;DHT22;11898;51.130;6.780;2023-11-19T16:38:49;14.60;99.90
23452;DHT22;11898;51.130;6.780;2023-11-19T16:41:21;14.60;99.90
23452;DHT22;11898;51.130;6.780;2023-11-19T16:43:55;14.60;99.90
23452;DHT22;11898;51.130;6.780;2023-11-19T16:46:24;14.60;99.90
23452;DHT22;11898;51.130;6.780;2023-11-19T16:48:53;14.60;99.90
23452;DHT22;11898;51.130;6.780;2023-11-19T16:51:24;14.60;99.90
23452;DHT22;11898;51.130;6.780;2023-11-19T16:53:52;14.60;99.90
23452;DHT22;11898;51.130;6.780;2023-11-19T16:56:21;14.60;99.90
23452;DHT22;11898;51.130;6.780;2023-11-19T16:58:50;14.70;99.90
23452;DHT22;11898;51.130;6.780;2023-11-19T17:01:18;14.70;99.90
23452;DHT22;11898;51.130;6.780;2023-11-19T17:06:16;14.80;99.90
23452;DHT22;11898;51.130;6.780;2023-11-19T17:08:45;14.80;99.90
23452;DHT22;11898;51.130;6.780;2023-11-19T17:11:13;14.90;99.90
23452;DHT22;11898;51.130;6.780;2023-11-19T17:13:42;14.90;99.90
23452;DHT22;11898;51.130;6.780;2023-11-19T17:16:11;14.90;99.90
23452;DHT22;11898;51.130;6.780;2023-11-19T17:18:39;15.00;99.90
23452;DHT22;11898;51.130;6.780;2023-11-19T17:21:09;15.00;99.90
23452;DHT22;11898;51.130;6.780;2023-11-19T17:23:38;15.00;99.90
23452;DHT22;11898;51.130;6.780;2023-11-19T17:26:07;15.00;99.90
23452;DHT22;11898;51.130;6.780;2023-11-19T17:28:36;15.00;99.90
23452;DHT22;11898;51.130;6.780;2023-11-19T17:31:06;15.00;99.90
23452;DHT22;11898;51.130;6.780;2023-11-19T17:33:35;15.00;99.90
23452;DHT22;11898;51.130;6.780;2023-11-19T17:36:04;14.90;99.90
23452;DHT22;11898;51.130;6.780;2023-11-19T17:38:34;15.00;99.90
23452;DHT22;11898;51.130;6.780;2023-11-19T17:41:03;15.00;99.90
23452;DHT22;11898;51.130;6.780;2023-11-19T17:43:32;15.00;99.90
23452;DHT22;11898;51.130;6.780;2023-11-19T17:46:01;15.10;99.90
23452;DHT22;11898;51.130;6.780;2023-11-19T17:48:34;15.00;99.90
23452;DHT22;11898;51.130;6.780;2023-11-19T17:51:04;15.10;99.90
23452;DHT22;11898;51.130;6.780;2023-11-19T17:53:37;15.10;99.90
23452;DHT22;11898;51.130;6.780;2023-11-19T17:56:05;15.00;99.90
23452;DHT22;11898;51.130;6.780;2023-11-19T17:58:34;15.00;99.90
23452;DHT22;11898;51.130;6.780;2023-11-19T18:01:06;15.10;99.90
23452;DHT22;11898;51.130;6.780;2023-11-19T18:03:36;15.10;99.90
23452;DHT22;11898;51.130;6.780;2023-11-19T18:06:05;15.10;99.90
23452;DHT22;11898;51.130;6.780;2023-11-19T18:08:35;15.10;99.90
23452;DHT22;11898;51.130;6.780;2023-11-19T18:11:04;15.10;99.90
23452;DHT22;11898;51.130;6.780;2023-11-19T18:13:32;15.10;99.90
23452;DHT22;11898;51.130;6.780;2023-11-19T18:16:03;15.10;99.90
23452;DHT22;11898;51.130;6.780;2023-11-19T18:18:33;15.10;99.90
23452;DHT22;11898;51.130;6.780;2023-11-19T18:21:02;15.20;99.90
23452;DHT22;11898;51.130;6.780;2023-11-19T18:23:32;15.10;99.90
23452;DHT22;11898;51.130;6.780;2023-11-19T18:26:02;15.20;99.90
23452;DHT22;11898;51.130;6.780;2023-11-19T18:28:32;15.10;99.90
23452;DHT22;11898;51.130;6.780;2023-11-19T18:31:00;15.10;99.90
23452;DHT22;11898;51.130;6.780;2023-11-19T18:33:29;15.10;99.90
23452;DHT22;11898;51.130;6.780;2023-11-19T18:35:58;15.00;99.90
23452;DHT22;11898;51.130;6.780;2023-11-19T18:38:28;15.00;99.90
23452;DHT22;11898;51.130;6.780;2023-11-19T18:40:59;14.90;99.90
23452;DHT22;11898;51.130;6.780;2023-11-19T18:43:29;14.90;99.90
23452;DHT22;11898;51.130;6.780;2023-11-19T18:45:59;14.90;99.90
23452;DHT22;11898;51.130;6.780;2023-11-19T18:48:28;14.80;99.90
23452;DHT22;11898;51.130;6.780;2023-11-19T18:50:57;14.80;99.90
23452;DHT22;11898;51.130;6.780;2023-11-19T18:53:27;14.80;99.90
23452;DHT22;11898;51.130;6.780;2023-11-19T18:55:56;14.80;99.90
23452;DHT22;11898;51.130;6.780;2023-11-19T18:58:25;14.80;99.90
23452;DHT22;11898;51.130;6.780;2023-11-19T19:00:56;14.80;99.90
23452;DHT22;11898;51.130;6.780;2023-11-19T19:03:24;14.70;99.90
23452;DHT22;11898;51.130;6.780;2023-11-19T19:05:59;14.60;99.90
23452;DHT22;11898;51.130;6.780;2023-11-19T19:08:28;14.60;99.90
23452;DHT22;11898;51.130;6.780;2023-11-19T19:10:56;14.50;99.90
23452;DHT22;11898;51.130;6.780;2023-11-19T19:13:25;14.40;99.90
23452;DHT22;11898;51.130;6.780;2023-11-19T19:15:56;14.40;99.90
23452;DHT22;11898;51.130;6.780;2023-11-19T19:18:24;14.20;99.90
23452;DHT22;11898;51.130;6.780;2023-11-19T19:20:54;14.20;99.90
23452;DHT22;11898;51.130;6.780;2023-11-19T19:23:23;14.10;99.90
23452;DHT22;11898;51.130;6.780;2023-11-19T19:25:51;14.10;99.90
23452;DHT22;11898;51.130;6.780;2023-11-19T19:28:22;14.00;99.90
23452;DHT22;11898;51.130;6.780;2023-11-19T19:30:51;14.00;99.90
23452;DHT22;11898;51.130;6.780;2023-11-19T19:33:20;13.90;99.90
23452;DHT22;11898;51.130;6.780;2023-11-19T19:36:08;13.90;99.90
23452;DHT22;11898;51.130;6.780;2023-11-19T19:38:37;13.90;99.90
23452;DHT22;11898;51.130;6.780;2023-11-19T19:41:06;13.90;99.90
23452;DHT22;11898;51.130;6.780;2023-11-19T19:43:35;13.80;99.90
23452;DHT22;11898;51.130;6.780;2023-11-19T19:46:05;13.80;99.90
23452;DHT22;11898;51.130;6.780;2023-11-19T19:48:35;13.80;99.90
23452;DHT22;11898;51.130;6.780;2023-11-19T19:51:04;13.80;99.90
23452;DHT22;11898;51.130;6.780;2023-11-19T19:53:37;13.80;99.90
23452;DHT22;11898;51.130;6.780;2023-11-19T19:56:07;13.80;99.90
23452;DHT22;11898;51.130;6.780;2023-11-19T19:58:37;13.70;99.90
23452;DHT22;11898;51.130;6.780;2023-11-19T20:01:10;13.70;99.90
23452;DHT22;11898;51.130;6.780;2023-11-19T20:03:39;13.70;99.90
23452;DHT22;11898;51.130;6.780;2023-11-19T20:06:09;13.80;99.90
23452;DHT22;11898;51.130;6.780;2023-11-19T20:08:40;13.70;99.90
23452;DHT22;11898;51.130;6.780;2023-11-19T20:11:09;13.70;99.90
23452;DHT22;11898;51.130;6.780;2023-11-19T20:13:39;13.80;99.90
23452;DHT22;11898;51.130;6.780;2023-11-19T20:16:09;13.80;99.90
23452;DHT22;11898;51.130;6.780;2023-11-19T20:18:38;13.80;99.90
23452;DHT22;11898;51.130;6.780;2023-11-19T20:21:08;13.80;99.90
23452;DHT22;11898;51.130;6.780;2023-11-19T20:23:37;13.80;99.90
23452;DHT22;11898;51.130;6.780;2023-11-19T20:26:06;13.80;99.90
23452;DHT22;11898;51.130;6.780;2023-11-19T20:28:35;13.80;99.90
23452;DHT22;11898;51.130;6.780;2023-11-19T20:31:03;13.80;99.90
23452;DHT22;11898;51.130;6.780;2023-11-19T20:33:32;13.80;99.90
23452;DHT22;11898;51.130;6.780;2023-11-19T20:36:02;13.80;99.90
23452;DHT22;11898;51.130;6.780;2023-11-19T20:38:35;13.80;99.90
23452;DHT22;11898;51.130;6.780;2023-11-19T20:41:05;13.80;99.90
23452;DHT22;11898;51.130;6.780;2023-11-19T20:43:33;13.90;99.90
23452;DHT22;11898;51.130;6.780;2023-11-19T20:46:02;13.90;99.90
23452;DHT22;11898;51.130;6.780;2023-11-19T20:48:31;13.90;99.90
23452;DHT22;11898;51.130;6.780;2023-11-19T20:51:02;13.90;99.90
23452;DHT22;11898;51.130;6.780;2023-11-19T20:53:31;13.90;99.90
23452;DHT22;11898;51.130;6.780;2023-11-19T20:55:59;13.90;99.90
23452;DHT22;11898;51.130;6.780;2023-11-19T20:58:28;14.00;99.90
23452;DHT22;11898;51.130;6.780;2023-11-19T21:00:57;14.00;99.90
23452;DHT22;11898;51.130;6.780;2023-11-19T21:03:26;14.00;99.90
23452;DHT22;11898;51.130;6.780;2023-11-19T21:05:55;14.00;99.90
23452;DHT22;11898;51.130;6.780;2023-11-19T21:08:23;14.10;99.90
23452;DHT22;11898;51.130;6.780;2023-11-19T21:10:54;14.10;99.90
23452;DHT22;11898;51.130;6.780;2023-11-19T21:13:22;14.10;99.90
23452;DHT22;11898;51.130;6.780;2023-11-19T21:15:53;14.10;99.90
23452;DHT22;11898;51.130;6.780;2023-11-19T21:18:23;14.20;99.90
23452;DHT22;11898;51.130;6.780;2023-11-19T21:20:53;14.10;99.90
23452;DHT22;11898;51.130;6.780;2023-11-19T21:23:23;14.20;99.90
23452;DHT22;11898;51.130;6.780;2023-11-19T21:25:52;14.20;99.90
23452;DHT22;11898;51.130;6.780;2023-11-19T21:28:21;14.20;99.90
23452;DHT22;11898;51.130;6.780;2023-11-19T21:30:53;14.20;99.90
23452;DHT22;11898;51.130;6.780;2023-11-19T21:33:27;14.20;99.90
23452;DHT22;11898;51.130;6.780;2023-11-19T21:35:56;14.30;99.90
23452;DHT22;11898;51.130;6.780;2023-11-19T21:38:26;14.30;99.90
23452;DHT22;11898;51.130;6.780;2023-11-19T21:40:55;14.30;99.90
23452;DHT22;11898;51.130;6.780;2023-11-19T21:43:24;14.30;99.90
23452;DHT22;11898;51.130;6.780;2023-11-19T21:45:53;14.40;99.90
23452;DHT22;11898;51.130;6.780;2023-11-19T21:48:22;14.30;99.90
23452;DHT22;11898;51.130;6.780;2023-11-19T21:50:50;14.40;99.90
23452;DHT22;11898;51.130;6.780;2023-11-19T21:53:19;14.40;99.90
23452;DHT22;11898;51.130;6.780;2023-11-19T21:55:48;14.40;99.90
23452;DHT22;11898;51.130;6.780;2023-11-19T21:58:17;14.40;99.90
23452;DHT22;11898;51.130;6.780;2023-11-19T22:00:46;14.30;99.90
23452;DHT22;11898;51.130;6.780;2023-11-19T22:03:14;14.30;99.90
23452;DHT22;11898;51.130;6.780;2023-11-19T22:05:43;14.30;99.90
23452;DHT22;11898;51.130;6.780;2023-11-19T22:08:12;14.30;99.90
23452;DHT22;11898;51.130;6.780;2023-11-19T22:10:43;14.30;99.90
23452;DHT22;11898;51.130;6.780;2023-11-19T22:13:12;14.30;99.90
23452;DHT22;11898;51.130;6.780;2023-11-19T22:15:41;14.30;99.90
23452;DHT22;11898;51.130;6.780;2023-11-19T22:18:11;14.30;99.90
23452;DHT22;11898;51.130;6.780;2023-11-19T22:20:40;14.30;99.90
23452;DHT22;11898;51.130;6.780;2023-11-19T22:23:08;14.20;99.90
23452;DHT22;11898;51.130;6.780;2023-11-19T22:25:37;14.20;99.90
23452;DHT22;11898;51.130;6.780;2023-11-19T22:28:08;14.20;99.90
23452;DHT22;11898;51.130;6.780;2023-11-19T22:30:36;14.20;99.90
23452;DHT22;11898;51.130;6.780;2023-11-19T22:33:07;14.20;99.90
23452;DHT22;11898;51.130;6.780;2023-11-19T22:35:36;14.20;99.90
23452;DHT22;11898;51.130;6.780;2023-11-19T22:38:06;14.20;99.90
23452;DHT22;11898;51.130;6.780;2023-11-19T22:40:34;14.20;99.90
23452;DHT22;11898;51.130;6.780;2023-11-19T22:43:03;14.20;99.90
23452;DHT22;11898;51.130;6.780;2023-11-19T22:45:32;14.10;99.90
23452;DHT22;11898;51.130;6.780;2023-11-19T22:48:00;14.20;99.90
23452;DHT22;11898;51.130;6.780;2023-11-19T22:50:29;14.10;99.90
23452;DHT22;11898;51.130;6.780;2023-11-19T22:52:59;14.10;99.90
23452;DHT22;11898;51.130;6.780;2023-11-19T22:55:28;14.10;99.90
23452;DHT22;11898;51.130;6.780;2023-11-19T22:57:56;14.10;99.90
23452;DHT22;11898;51.130;6.780;2023-11-19T23:00:27;14.10;99.90
23452;DHT22;11898;51.130;6.780;2023-11-19T23:02:57;14.10;99.90
23452;DHT22;11898;51.130;6.780;2023-11-19T23:05:26;14.00;99.90
23452;DHT22;11898;51.130;6.780;2023-11-19T23:07:56;14.00;99.90
23452;DHT22;11898;51.130;6.780;2023-11-19T23:10:26;14.00;99.90
23452;DHT22;11898;51.130;6.780;2023-11-19T23:12:55;14.00;99.90
23452;DHT22;11898;51.130;6.780;2023-11-19T23:15:27;14.00;99.90
23452;DHT22;11898;51.130;6.780;2023-11-19T23:17:57;14.00;99.90
23452;DHT22;11898;51.130;6.780;2023-11-19T23:20:28;14.00;99.90
23452;DHT22;11898;51.130;6.780;2023-11-19T23:22:57;14.00;99.90
23452;DHT22;11898;51.130;6.780;2023-11-19T23:25:25;14.00;99.90
23452;DHT22;11898;51.130;6.780;2023-11-19T23:27:54;14.00;99.90
23452;DHT22;11898;51.130;6.780;2023-11-19T23:30:23;14.10;99.90
23452;DHT22;11898;51.130;6.780;2023-11-19T23:32:52;14.10;99.90
23452;DHT22;11898;51.130;6.780;2023-11-19T23:35:21;14.10;99.90
23452;DHT22;11898;51.130;6.780;2023-11-19T23:37:51;14.10;99.90
23452;DHT22;11898;51.130;6.780;2023-11-19T23:40:19;14.10;99.90
23452;DHT22;11898;51.130;6.780;2023-11-19T23:42:48;14.20;99.90
23452;DHT22;11898;51.130;6.780;2023-11-19T23:45:17;14.10;99.90
23452;DHT22;11898;51.130;6.780;2023-11-19T23:47:47;14.20;99.90
23452;DHT22;11898;51.130;6.780;2023-11-19T23:50:16;14.20;99.90
23452;DHT22;11898;51.130;6.780;2023-11-19T23:52:46;14.20;99.90
23452;DHT22;11898;51.130;6.780;2023-11-19T23:55:16;14.20;99.90
23452;DHT22;11898;51.130;6.780;2023-11-19T23:57:45;14.20;99.90
